Time,TemperatureF,DewpointF,PressureIn,WindDirection,WindDirectionDegrees,WindSpeedMPH,WindSpeedGustMPH,Humidity,HourlyPrecipIn,Conditions,Clouds,dailyrainin,SolarRadiationWatts/m^2,SoftwareType,DateUTC
2013-07-28 00:22:00,56.0,53.0,-100.00,SE,146,0.0,4.0,91,0.00,,,0.00,1.000000,,2013-07-28 08:22:00,
2013-07-28 00:33:00,56.0,53.0,-100.00,SE,146,0.0,4.0,91,0.00,,,0.00,1.000000,,2013-07-28 08:33:00,
2013-07-28 00:42:00,56.0,53.0,-100.00,SE,146,0.0,4.0,91,0.00,,,0.00,1.000000,,2013-07-28 08:42:00,
2013-07-28 00:53:00,56.0,53.0,-100.00,SE,146,0.0,4.0,91,0.00,,,0.00,1.000000,,2013-07-28 08:53:00,
2013-07-28 01:22:00,57.0,53.0,-100.00,ESE,103,0.0,0.0,88,0.00,,,0.00,0.000000,,2013-07-28 09:22:00,
2013-07-28 01:32:00,57.0,53.0,-100.00,ESE,103,0.0,0.0,88,0.00,,,0.00,0.000000,,2013-07-28 09:32:00,
2013-07-28 01:43:00,57.0,53.0,-100.00,ESE,103,0.0,0.0,88,0.00,,,0.00,0.000000,,2013-07-28 09:43:00,
2013-07-28 01:53:00,57.0,53.0,-100.00,ESE,103,0.0,0.0,88,0.00,,,0.00,0.000000,,2013-07-28 09:53:00,
2013-07-28 02:22:00,56.0,53.0,-100.00,NE,41,0.0,0.0,90,0.00,,,0.00,0.000000,,2013-07-28 10:22:00,
2013-07-28 02:32:00,56.0,53.0,-100.00,NE,41,0.0,0.0,90,0.00,,,0.00,0.000000,,2013-07-28 10:32:00,
2013-07-28 02:42:00,56.0,53.0,-100.00,NE,41,0.0,0.0,90,0.00,,,0.00,0.000000,,2013-07-28 10:42:00,
2013-07-28 02:52:00,56.0,53.0,-100.00,NE,41,0.0,0.0,90,0.00,,,0.00,0.000000,,2013-07-28 10:52:00,
2013-07-28 03:22:00,57.0,54.0,-100.00,WSW,250,0.0,2.0,89,0.00,,,0.00,0.000000,,2013-07-28 11:22:00,
2013-07-28 03:33:00,57.0,54.0,-100.00,WSW,250,0.0,2.0,89,0.00,,,0.00,0.000000,,2013-07-28 11:33:00,
2013-07-28 03:43:00,57.0,54.0,-100.00,WSW,250,0.0,2.0,89,0.00,,,0.00,0.000000,,2013-07-28 11:43:00,
2013-07-28 03:53:00,57.0,54.0,-100.00,WSW,250,0.0,2.0,89,0.00,,,0.00,0.000000,,2013-07-28 11:53:00,
2013-07-28 04:22:00,57.0,54.0,-100.00,ESE,105,0.0,3.0,90,0.00,,,0.00,0.000000,,2013-07-28 12:22:00,
2013-07-28 04:33:00,57.0,54.0,-100.00,ESE,105,0.0,3.0,90,0.00,,,0.00,0.000000,,2013-07-28 12:33:00,
2013-07-28 04:43:00,57.0,54.0,-100.00,ESE,105,0.0,3.0,90,0.00,,,0.00,0.000000,,2013-07-28 12:43:00,
2013-07-28 04:53:00,57.0,54.0,-100.00,ESE,105,0.0,3.0,90,0.00,,,0.00,0.000000,,2013-07-28 12:53:00,
2013-07-28 05:22:00,57.0,54.0,-100.00,North,5,1.0,2.0,91,0.00,,,0.00,0.000000,,2013-07-28 13:22:00,
2013-07-28 05:32:00,57.0,54.0,-100.00,North,5,1.0,2.0,91,0.00,,,0.00,0.000000,,2013-07-28 13:32:00,
2013-07-28 05:43:00,57.0,54.0,-100.00,North,5,1.0,2.0,91,0.00,,,0.00,0.000000,,2013-07-28 13:43:00,
2013-07-28 05:52:00,57.0,54.0,-100.00,North,5,1.0,2.0,91,0.00,,,0.00,0.000000,,2013-07-28 13:52:00,
2013-07-28 06:33:00,57.0,55.0,-100.00,NE,43,0.0,2.0,93,0.00,,,0.00,1.000000,,2013-07-28 14:33:00,
2013-07-28 06:43:00,57.0,55.0,-100.00,NE,43,0.0,2.0,93,0.00,,,0.00,1.000000,,2013-07-28 14:43:00,
2013-07-28 06:53:00,57.0,55.0,-100.00,NE,43,0.0,2.0,93,0.00,,,0.00,1.000000,,2013-07-28 14:53:00,
2013-07-28 07:32:00,56.0,55.0,-100.00,NNE,29,0.0,4.0,95,0.00,,,0.00,13.000000,,2013-07-28 15:32:00,
2013-07-28 07:43:00,56.0,55.0,-100.00,NNE,29,0.0,4.0,95,0.00,,,0.00,13.000000,,2013-07-28 15:43:00,
2013-07-28 07:53:00,56.0,55.0,-100.00,NNE,29,0.0,4.0,95,0.00,,,0.00,13.000000,,2013-07-28 15:53:00,
2013-07-28 08:22:00,57.0,55.0,-100.00,WNW,296,0.0,3.0,94,0.00,,,0.00,37.000000,,2013-07-28 16:22:00,
2013-07-28 08:33:00,57.0,55.0,-100.00,WNW,296,0.0,3.0,94,0.00,,,0.00,37.000000,,2013-07-28 16:33:00,
2013-07-28 08:43:00,57.0,55.0,-100.00,WNW,296,0.0,3.0,94,0.00,,,0.00,37.000000,,2013-07-28 16:43:00,
2013-07-28 08:52:00,57.0,55.0,-100.00,WNW,296,0.0,3.0,94,0.00,,,0.00,37.000000,,2013-07-28 16:52:00,
2013-07-28 09:43:00,58.0,56.0,-100.00,WNW,291,1.0,3.0,94,0.00,,,0.00,77.000000,,2013-07-28 17:43:00,
2013-07-28 09:53:00,58.0,56.0,-100.00,WNW,291,1.0,3.0,94,0.00,,,0.00,77.000000,,2013-07-28 17:53:00,
2013-07-28 10:22:00,59.0,58.0,-100.00,NW,322,3.0,5.0,95,0.00,,,0.00,128.000000,,2013-07-28 18:22:00,
2013-07-28 10:32:00,59.0,58.0,-100.00,NW,322,3.0,5.0,95,0.00,,,0.00,128.000000,,2013-07-28 18:32:00,
2013-07-28 10:43:00,59.0,58.0,-100.00,NW,322,3.0,5.0,95,0.00,,,0.00,128.000000,,2013-07-28 18:43:00,
2013-07-28 10:52:00,59.0,58.0,-100.00,NW,322,3.0,5.0,95,0.00,,,0.00,128.000000,,2013-07-28 18:52:00,
2013-07-28 11:22:00,60.0,58.0,-100.00,WNW,299,3.0,5.0,92,0.00,,,0.00,157.000000,,2013-07-28 19:22:00,
2013-07-28 11:32:00,60.0,58.0,-100.00,WNW,299,3.0,5.0,92,0.00,,,0.00,157.000000,,2013-07-28 19:32:00,
2013-07-28 11:43:00,60.0,58.0,-100.00,WNW,299,3.0,5.0,92,0.00,,,0.00,157.000000,,2013-07-28 19:43:00,
2013-07-28 11:52:00,60.0,58.0,-100.00,WNW,299,3.0,5.0,92,0.00,,,0.00,157.000000,,2013-07-28 19:52:00,
2013-07-28 12:22:00,61.0,58.0,-100.00,NNW,338,3.0,5.0,90,0.00,,,0.00,194.000000,,2013-07-28 20:22:00,
2013-07-28 12:33:00,61.0,58.0,-100.00,NNW,338,3.0,5.0,90,0.00,,,0.00,194.000000,,2013-07-28 20:33:00,
2013-07-28 12:43:00,61.0,58.0,-100.00,NNW,338,3.0,5.0,90,0.00,,,0.00,194.000000,,2013-07-28 20:43:00,
2013-07-28 12:52:00,61.0,58.0,-100.00,NNW,338,3.0,5.0,90,0.00,,,0.00,194.000000,,2013-07-28 20:52:00,
2013-07-28 13:33:00,64.0,59.0,-100.00,NNW,332,3.0,6.0,84,0.00,,,0.00,287.000000,,2013-07-28 21:33:00,
2013-07-28 13:43:00,64.0,59.0,-100.00,NNW,332,3.0,6.0,84,0.00,,,0.00,287.000000,,2013-07-28 21:43:00,
2013-07-28 13:52:00,64.0,59.0,-100.00,NNW,332,3.0,6.0,84,0.00,,,0.00,287.000000,,2013-07-28 21:52:00,
2013-07-28 14:43:00,66.0,59.0,-100.00,NNW,341,4.0,7.0,77,0.00,,,0.00,350.000000,,2013-07-28 22:43:00,
2013-07-28 14:52:00,66.0,59.0,-100.00,NNW,341,4.0,7.0,77,0.00,,,0.00,350.000000,,2013-07-28 22:52:00,
2013-07-28 15:32:00,71.0,60.0,-100.00,NNW,342,4.0,7.0,68,0.00,,,0.00,652.000000,,2013-07-28 23:32:00,
2013-07-28 15:43:00,71.0,60.0,-100.00,NNW,342,4.0,7.0,68,0.00,,,0.00,652.000000,,2013-07-28 23:43:00,
2013-07-28 15:53:00,71.0,60.0,-100.00,NNW,342,4.0,7.0,68,0.00,,,0.00,652.000000,,2013-07-28 23:53:00,
2013-07-28 16:22:00,71.0,58.0,-100.00,West,260,4.0,9.0,64,0.00,,,0.00,718.000000,,2013-07-29 00:22:00,
2013-07-28 16:32:00,71.0,58.0,-100.00,West,260,4.0,9.0,64,0.00,,,0.00,718.000000,,2013-07-29 00:32:00,
2013-07-28 16:43:00,71.0,58.0,-100.00,West,260,4.0,9.0,64,0.00,,,0.00,718.000000,,2013-07-29 00:43:00,
2013-07-28 16:52:00,71.0,58.0,-100.00,West,260,4.0,9.0,64,0.00,,,0.00,718.000000,,2013-07-29 00:52:00,
2013-07-28 17:34:00,73.0,61.0,-100.00,WSW,248,4.0,7.0,65,0.00,,,0.00,658.000000,,2013-07-29 01:34:00,
2013-07-28 17:42:00,73.0,61.0,-100.00,WSW,248,4.0,7.0,65,0.00,,,0.00,658.000000,,2013-07-29 01:42:00,
2013-07-28 17:55:00,73.0,61.0,-100.00,WSW,248,4.0,7.0,65,0.00,,,0.00,658.000000,,2013-07-29 01:55:00,
2013-07-28 18:35:00,74.0,61.0,-100.00,SSW,212,4.0,7.0,63,0.00,,,0.00,570.000000,,2013-07-29 02:35:00,
2013-07-28 18:45:00,74.0,61.0,-100.00,SSW,212,4.0,7.0,63,0.00,,,0.00,570.000000,,2013-07-29 02:45:00,
2013-07-28 18:54:00,74.0,61.0,-100.00,SSW,212,4.0,7.0,63,0.00,,,0.00,570.000000,,2013-07-29 02:54:00,
2013-07-28 19:22:00,74.0,60.0,-100.00,SW,217,5.0,9.0,61,0.00,,,0.00,432.000000,,2013-07-29 03:22:00,
2013-07-28 19:45:00,74.0,60.0,-100.00,SW,217,5.0,9.0,61,0.00,,,0.00,432.000000,,2013-07-29 03:45:00,
2013-07-28 20:22:00,73.0,58.0,-100.00,SSW,213,4.0,8.0,59,0.00,,,0.00,327.000000,,2013-07-29 04:22:00,
2013-07-28 20:32:00,73.0,58.0,-100.00,SSW,213,4.0,8.0,59,0.00,,,0.00,327.000000,,2013-07-29 04:32:00,
2013-07-28 20:43:00,73.0,58.0,-100.00,SSW,213,4.0,8.0,59,0.00,,,0.00,327.000000,,2013-07-29 04:43:00,
2013-07-28 20:53:00,73.0,58.0,-100.00,SSW,213,4.0,8.0,59,0.00,,,0.00,327.000000,,2013-07-29 04:53:00,
2013-07-28 21:22:00,72.0,59.0,-100.00,WSW,241,2.0,5.0,63,0.00,,,0.00,203.000000,,2013-07-29 05:22:00,
2013-07-28 21:32:00,72.0,59.0,-100.00,WSW,241,2.0,5.0,63,0.00,,,0.00,203.000000,,2013-07-29 05:32:00,
2013-07-28 21:42:00,72.0,59.0,-100.00,WSW,241,2.0,5.0,63,0.00,,,0.00,203.000000,,2013-07-29 05:42:00,
2013-07-28 21:53:00,72.0,59.0,-100.00,WSW,241,2.0,5.0,63,0.00,,,0.00,203.000000,,2013-07-29 05:53:00,
2013-07-28 22:22:00,68.0,57.0,-100.00,SW,215,2.0,5.0,69,0.00,,,0.00,92.000000,,2013-07-29 06:22:00,
2013-07-28 22:32:00,68.0,57.0,-100.00,SW,215,2.0,5.0,69,0.00,,,0.00,92.000000,,2013-07-29 06:32:00,
2013-07-28 22:43:00,68.0,57.0,-100.00,SW,215,2.0,5.0,69,0.00,,,0.00,92.000000,,2013-07-29 06:43:00,
2013-07-28 22:52:00,68.0,57.0,-100.00,SW,215,2.0,5.0,69,0.00,,,0.00,92.000000,,2013-07-29 06:52:00,
2013-07-28 23:33:00,63.0,56.0,-100.00,SSW,208,2.0,3.0,79,0.00,,,-99.99,17.000000,,2013-07-29 07:33:00,
2013-07-28 23:43:00,63.0,56.0,-100.00,SSW,208,2.0,3.0,79,0.00,,,-99.99,17.000000,,2013-07-29 07:43:00,
2013-07-28 23:53:00,63.0,56.0,-100.00,SSW,208,2.0,3.0,79,0.00,,,-99.99,17.000000,,2013-07-29 07:53:00,